Time;durP1;ratioP1;P1;durP2;ratioP2;P2;SDS_P1;SDS_P2;PMS_P1;PMS_P2;Temp;Humidity;BMP_temperature;BMP_pressure;BME280_temperature;BME280_humidity;BME280_pressure;Samples;Min_cycle;Max_cycle;Signal;HPM_P1;HPM_P2
2021/08/29 00:01:33;;;;;;;10.43;9.32;;;;;;;14.36;100.00;100772.09;5031774;28;20081;-79
2021/08/29 00:04:00;;;;;;;12.15;8.70;;;;;;;14.46;100.00;100765.19;5006335;28;20136;-80
2021/08/29 00:06:27;;;;;;;12.95;8.45;;;;;;;14.23;100.00;100760.69;5050381;28;20136;-79
2021/08/29 00:08:55;;;;;;;10.85;8.18;;;;;;;14.22;100.00;100759.84;5047265;28;20048;-80
2021/08/29 00:11:23;;;;;;;10.30;9.10;;;;;;;14.25;100.00;100761.44;5046922;28;20127;-79
2021/08/29 00:13:50;;;;;;;10.05;9.00;;;;;;;14.20;100.00;100767.06;5030508;28;20119;-81
2021/08/29 00:16:18;;;;;;;13.02;8.85;;;;;;;14.21;100.00;100762.59;5047460;28;20041;-79
2021/08/29 00:18:51;;;;;;;13.95;9.30;;;;;;;14.47;100.00;100760.72;5029047;28;20032;-79
2021/08/29 00:21:18;;;;;;;15.95;11.90;;;;;;;14.64;100.00;100760.38;5026509;28;20040;-80
2021/08/29 00:23:45;;;;;;;12.43;9.52;;;;;;;14.43;100.00;100757.44;5047284;28;20045;-79
2021/08/29 00:26:13;;;;;;;12.05;7.75;;;;;;;14.55;100.00;100756.59;5037570;28;20053;-80
2021/08/29 00:28:42;;;;;;;10.25;8.40;;;;;;;14.46;100.00;100754.59;5033361;28;20149;-79
2021/08/29 00:31:09;;;;;;;11.55;8.15;;;;;;;14.64;100.00;100753.28;5048132;28;20053;-80
2021/08/29 00:33:36;;;;;;;8.55;7.65;;;;;;;14.67;100.00;100754.81;5033821;28;20172;-80
2021/08/29 00:36:04;;;;;;;11.57;8.68;;;;;;;14.71;100.00;100751.00;5035309;28;20147;-79
2021/08/29 00:38:31;;;;;;;10.30;8.25;;;;;;;14.57;100.00;100757.31;5015605;28;20084;-82
2021/08/29 00:40:58;;;;;;;11.15;8.57;;;;;;;14.44;100.00;100754.69;5030495;28;20127;-80
2021/08/29 00:43:25;;;;;;;9.88;8.30;;;;;;;14.47;100.00;100755.44;5015684;28;20159;-81
2021/08/29 00:45:53;;;;;;;12.77;8.60;;;;;;;14.34;100.00;100747.53;5028574;28;20565;-79
2021/08/29 00:48:21;;;;;;;10.88;9.00;;;;;;;14.49;100.00;100751.72;5017086;28;20049;-80
2021/08/29 00:50:48;;;;;;;11.32;8.80;;;;;;;14.43;100.00;100744.22;5016339;28;20095;-81
2021/08/29 00:53:19;;;;;;;9.82;8.65;;;;;;;14.34;100.00;100748.38;5052547;28;20124;-82
2021/08/29 00:55:48;;;;;;;12.07;8.80;;;;;;;14.48;100.00;100742.09;4999195;28;20528;-81
2021/08/29 00:58:16;;;;;;;11.00;9.70;;;;;;;14.51;100.00;100743.69;5020682;28;20055;-82
2021/08/29 01:00:43;;;;;;;10.30;9.02;;;;;;;14.56;100.00;100746.84;5019916;28;20064;-80
2021/08/29 01:03:17;;;;;;;10.05;8.85;;;;;;;14.76;100.00;100738.25;5032311;28;20053;-81
2021/08/29 01:05:52;;;;;;;11.30;9.95;;;;;;;14.64;100.00;100742.66;5050190;28;20053;-80
2021/08/29 01:08:19;;;;;;;11.13;8.00;;;;;;;14.50;100.00;100741.97;5036158;28;20888;-81
2021/08/29 01:10:51;;;;;;;12.50;8.88;;;;;;;14.50;100.00;100742.84;5031615;28;20045;-81
2021/08/29 01:13:24;;;;;;;9.52;8.32;;;;;;;14.55;100.00;100745.16;5016797;28;20041;-79
2021/08/29 01:15:57;;;;;;;10.20;8.38;;;;;;;14.44;100.00;100744.09;5031072;28;20045;-79
2021/08/29 01:18:25;;;;;;;10.70;8.80;;;;;;;14.42;100.00;100745.16;5010990;28;20052;-78
2021/08/29 01:20:57;;;;;;;9.70;8.70;;;;;;;14.50;100.00;100742.84;5013503;28;20489;-79
2021/08/29 01:23:25;;;;;;;10.80;7.55;;;;;;;14.36;100.00;100748.25;5037916;28;20106;-79
2021/08/29 01:25:56;;;;;;;9.30;7.82;;;;;;;14.39;100.00;100746.22;5015080;28;20084;-80
2021/08/29 01:28:31;;;;;;;8.63;7.60;;;;;;;14.31;100.00;100745.94;5022135;28;20124;-80
2021/08/29 01:30:58;;;;;;;13.65;9.55;;;;;;;14.34;100.00;100748.38;5036468;28;20552;-80
2021/08/29 01:33:25;;;;;;;10.38;7.90;;;;;;;14.32;100.00;100742.34;5016506;28;20041;-81
2021/08/29 01:35:53;;;;;;;10.48;8.18;;;;;;;14.39;100.00;100740.94;5017672;28;20128;-79
2021/08/29 01:38:21;;;;;;;9.07;8.18;;;;;;;14.44;100.00;100744.09;5039741;28;20057;-80
2021/08/29 01:40:48;;;;;;;9.05;8.13;;;;;;;14.47;100.00;100747.50;5041344;28;20064;-79
2021/08/29 01:43:15;;;;;;;12.52;8.05;;;;;;;14.44;100.00;100745.91;5029690;28;20083;-80
2021/08/29 01:45:43;;;;;;;11.43;7.95;;;;;;;14.43;100.00;100746.84;5030615;28;20396;-81
2021/08/29 01:48:11;;;;;;;8.15;7.35;;;;;;;14.47;100.00;100743.03;5020550;28;20063;-80
2021/08/29 01:50:38;;;;;;;9.15;8.07;;;;;;;14.57;100.00;100744.06;5042031;28;20492;-80
2021/08/29 01:53:06;;;;;;;9.38;7.85;;;;;;;14.49;100.00;100743.78;5035071;28;20057;-81
2021/08/29 01:55:33;;;;;;;8.98;7.57;;;;;;;14.53;100.00;100741.75;5031604;28;20535;-80
2021/08/29 01:58:00;;;;;;;10.38;7.25;;;;;;;14.60;100.00;100737.72;5050165;28;20083;-82
2021/08/29 02:00:27;;;;;;;11.77;7.57;;;;;;;14.57;100.00;100738.78;5024453;28;20041;-80
2021/08/29 02:02:55;;;;;;;9.77;7.50;;;;;;;14.65;100.00;100738.22;5022128;28;20159;-80
2021/08/29 02:05:22;;;;;;;8.98;7.75;;;;;;;14.48;100.00;100734.16;5032448;28;20429;-81
2021/08/29 02:07:51;;;;;;;9.38;8.18;;;;;;;14.54;100.00;100738.16;5056353;28;20064;-79
2021/08/29 02:10:23;;;;;;;9.95;7.45;;;;;;;14.53;100.00;100739.94;5024828;28;20205;-79
2021/08/29 02:12:57;;;;;;;8.38;7.50;;;;;;;14.51;100.00;100726.00;5032250;28;20110;-79
2021/08/29 02:15:29;;;;;;;9.52;6.78;;;;;;;14.41;100.00;100732.91;5020007;28;20037;-79
2021/08/29 02:17:57;;;;;;;8.63;7.22;;;;;;;14.36;100.00;100730.59;5020094;28;20178;-80
2021/08/29 02:20:25;;;;;;;10.48;7.85;;;;;;;14.40;100.00;100724.06;5042530;28;20041;-81
2021/08/29 02:22:54;;;;;;;7.55;6.85;;;;;;;14.33;100.00;100733.44;5039160;28;20147;-80
2021/08/29 02:25:21;;;;;;;8.32;5.60;;;;;;;14.21;100.00;100739.63;5025441;28;20437;-81
2021/08/29 02:27:48;;;;;;;6.97;6.00;;;;;;;14.20;100.00;100740.59;5037565;28;20052;-80
2021/08/29 02:30:16;;;;;;;10.18;6.70;;;;;;;14.25;100.00;100737.59;5011834;28;20059;-81
2021/08/29 02:32:44;;;;;;;9.00;6.07;;;;;;;14.22;100.00;100733.38;5029623;28;20041;-82
2021/08/29 02:35:11;;;;;;;6.22;5.63;;;;;;;14.13;100.00;100726.09;5020421;28;20522;-80
2021/08/29 02:37:38;;;;;;;7.70;6.32;;;;;;;14.25;100.00;100719.06;5043396;28;20044;-80
2021/08/29 02:40:07;;;;;;;6.05;5.28;;;;;;;14.24;100.00;100720.88;5008899;28;20063;-80
2021/08/29 02:42:34;;;;;;;8.48;4.82;;;;;;;14.20;100.00;100724.69;5022935;28;20083;-81
2021/08/29 02:45:04;;;;;;;8.48;5.10;;;;;;;14.27;100.00;100719.78;5031900;28;20049;-80
2021/08/29 02:47:32;;;;;;;5.75;5.18;;;;;;;14.32;100.00;100717.66;5037602;28;20128;-80
2021/08/29 02:49:59;;;;;;;7.18;5.40;;;;;;;14.15;100.00;100714.44;5030840;28;20479;-80
2021/08/29 02:52:26;;;;;;;7.88;5.32;;;;;;;14.12;100.00;100725.25;5032278;28;20085;-78
2021/08/29 02:54:56;;;;;;;5.60;4.93;;;;;;;14.10;100.00;100713.94;5027528;28;20047;-79
2021/08/29 02:57:31;;;;;;;5.43;4.93;;;;;;;13.99;100.00;100724.44;5014623;28;20135;-79
2021/08/29 02:59:58;;;;;;;4.63;4.17;;;;;;;13.96;100.00;100726.44;5020108;28;20150;-81
2021/08/29 03:02:25;;;;;;;6.90;5.22;;;;;;;13.98;100.00;100730.69;5036626;28;20403;-80
2021/08/29 03:04:53;;;;;;;4.88;4.07;;;;;;;14.04;100.00;100734.69;5027911;28;20056;-79
2021/08/29 03:07:20;;;;;;;4.75;4.18;;;;;;;14.02;100.00;100726.03;5029903;28;20452;-80
2021/08/29 03:09:47;;;;;;;6.22;4.38;;;;;;;13.95;100.00;100728.25;5052393;28;20559;-80
2021/08/29 03:12:15;;;;;;;4.78;4.30;;;;;;;13.97;100.00;100730.81;5042467;28;20514;-81
2021/08/29 03:14:42;;;;;;;5.18;3.95;;;;;;;13.99;100.00;100726.25;5028881;28;20120;-81
2021/08/29 03:17:09;;;;;;;10.93;4.85;;;;;;;13.94;100.00;100710.69;5026921;28;20054;-79
2021/08/29 03:19:39;;;;;;;4.28;3.80;;;;;;;14.03;100.00;100714.47;5027069;28;20049;-80
2021/08/29 03:22:07;;;;;;;3.80;3.40;;;;;;;14.07;100.00;100714.16;5031059;28;20036;-80
2021/08/29 03:24:34;;;;;;;3.95;3.55;;;;;;;14.17;100.00;100709.03;4997012;28;20141;-78
2021/08/29 03:27:01;;;;;;;3.88;3.58;;;;;;;14.15;100.00;100703.84;5032150;28;20389;-80
2021/08/29 03:29:28;;;;;;;3.88;2.63;;;;;;;14.14;100.00;100703.97;5050639;28;20185;-80
2021/08/29 03:31:58;;;;;;;5.30;2.92;;;;;;;14.06;100.00;100707.16;5019460;28;20369;-81
2021/08/29 03:34:25;;;;;;;3.65;3.35;;;;;;;13.94;100.00;100703.59;5047416;28;20152;-82
2021/08/29 03:36:53;;;;;;;3.58;3.10;;;;;;;13.91;100.00;100703.84;5038582;28;20507;-80
2021/08/29 03:39:20;;;;;;;2.90;2.60;;;;;;;13.93;100.00;100701.91;5039524;28;20076;-82
2021/08/29 03:41:48;;;;;;;3.42;2.70;;;;;;;13.97;100.00;100709.63;5012541;28;20076;-80
2021/08/29 03:44:15;;;;;;;3.28;2.97;;;;;;;13.93;100.00;100704.56;5047168;28;20072;-81
2021/08/29 03:46:43;;;;;;;3.63;3.03;;;;;;;13.90;100.00;100701.28;5039687;28;20111;-79
2021/08/29 03:49:10;;;;;;;4.15;2.60;;;;;;;14.04;100.00;100711.72;4997114;28;20125;-82
2021/08/29 03:51:41;;;;;;;11.45;3.35;;;;;;;14.05;100.00;100709.91;5032599;28;20053;-80
2021/08/29 03:54:08;;;;;;;2.70;2.50;;;;;;;14.07;100.00;100703.56;5035018;28;20139;-80
2021/08/29 03:56:35;;;;;;;2.60;2.30;;;;;;;14.00;100.00;100702.28;5014083;28;20076;-81
2021/08/29 03:59:03;;;;;;;6.22;2.70;;;;;;;13.90;100.00;100701.28;5032403;28;20143;-81
2021/08/29 04:01:30;;;;;;;2.58;2.38;;;;;;;13.82;100.00;100703.63;5066981;28;20053;-82
2021/08/29 04:03:58;;;;;;;3.60;2.30;;;;;;;13.81;100.00;100696.63;5051340;28;20152;-80
2021/08/29 04:06:25;;;;;;;2.55;2.08;;;;;;;13.78;100.00;100697.72;5034507;28;20123;-80
2021/08/29 04:08:57;;;;;;;2.25;2.05;;;;;;;13.69;100.00;100706.31;5051457;28;20045;-81
2021/08/29 04:11:28;;;;;;;2.80;2.30;;;;;;;13.66;100.00;100710.00;5010169;28;20029;-81
2021/08/29 04:13:57;;;;;;;2.10;1.80;;;;;;;13.66;100.00;100699.41;5031492;28;20033;-80
2021/08/29 04:16:26;;;;;;;2.67;2.13;;;;;;;13.79;100.00;100706.50;4990672;28;20136;-80
2021/08/29 04:18:57;;;;;;;3.50;2.50;;;;;;;13.98;100.00;100708.66;5042623;28;20055;-80
2021/08/29 04:21:25;;;;;;;2.33;2.10;;;;;;;13.92;100.00;100704.66;5037644;28;20095;-80
2021/08/29 04:23:53;;;;;;;4.45;2.90;;;;;;;13.90;100.00;100701.28;5026926;28;20041;-80
2021/08/29 04:26:20;;;;;;;3.30;2.83;;;;;;;14.01;100.00;100705.81;5015893;28;20075;-78
2021/08/29 04:28:54;;;;;;;3.95;2.60;;;;;;;14.17;100.00;100706.38;5052408;28;20123;-79
2021/08/29 04:31:27;;;;;;;5.75;3.10;;;;;;;14.17;100.00;100709.88;5020022;28;20488;-79
2021/08/29 04:33:55;;;;;;;3.20;2.78;;;;;;;14.01;100.00;100704.00;5022118;28;20052;-80
2021/08/29 04:36:23;;;;;;;3.38;2.70;;;;;;;13.94;100.00;100702.75;5010205;28;20449;-79
2021/08/29 04:38:51;;;;;;;3.08;2.78;;;;;;;14.13;100.00;100703.09;5014632;28;20061;-80
2021/08/29 04:41:21;;;;;;;5.38;2.63;;;;;;;14.02;100.00;100712.78;5028618;28;20112;-80
2021/08/29 04:43:51;;;;;;;2.85;2.50;;;;;;;13.91;100.00;100705.59;5028324;28;20091;-80
2021/08/29 04:46:19;;;;;;;3.42;2.83;;;;;;;13.88;100.00;100709.34;5028203;28;20118;-80
2021/08/29 04:48:51;;;;;;;4.18;2.42;;;;;;;13.92;100.00;100704.66;5031191;28;20064;-81
2021/08/29 04:51:19;;;;;;;3.25;2.40;;;;;;;13.73;100.00;100709.56;5036582;28;20063;-80
2021/08/29 04:53:48;;;;;;;5.22;2.50;;;;;;;13.70;100.00;100709.81;5030366;28;20049;-82
2021/08/29 04:56:16;;;;;;;2.97;2.35;;;;;;;13.67;100.00;100710.84;5045185;28;20540;-80
2021/08/29 04:58:43;;;;;;;2.67;2.47;;;;;;;13.66;100.00;100714.44;5014924;28;20518;-81
2021/08/29 05:01:10;;;;;;;3.22;2.67;;;;;;;13.97;100.00;100720.22;5045351;28;20049;-81
2021/08/29 05:03:38;;;;;;;5.65;2.75;;;;;;;13.81;100.00;100713.34;5050419;28;20048;-81
2021/08/29 05:06:07;;;;;;;2.22;2.03;;;;;;;13.77;100.00;100711.03;5028967;28;20205;-80
2021/08/29 05:08:34;;;;;;;3.55;2.40;;;;;;;13.85;100.00;100711.34;5045676;28;20047;-80
2021/08/29 05:11:03;;;;;;;2.90;2.50;;;;;;;14.13;100.00;100710.19;5044861;28;20517;-81
2021/08/29 05:13:31;;;;;;;5.95;2.88;;;;;;;14.09;100.00;100717.50;5027750;28;20040;-80
2021/08/29 05:15:58;;;;;;;3.03;2.42;;;;;;;14.02;100.00;100715.44;5045026;28;20053;-80
2021/08/29 05:18:26;;;;;;;2.67;2.42;;;;;;;14.15;100.00;100719.75;5041072;28;21049;-79
2021/08/29 05:20:55;;;;;;;5.43;2.15;;;;;;;14.13;100.00;100719.00;5037299;28;20124;-79
2021/08/29 05:23:33;;;;;;;3.00;2.70;;;;;;;14.21;100.00;100715.78;5013030;28;20102;-80
2021/08/29 05:26:00;;;;;;;3.10;2.78;;;;;;;14.17;100.00;100711.69;5034710;28;20132;-80
2021/08/29 05:28:28;;;;;;;9.15;3.35;;;;;;;14.16;100.00;100715.28;5030636;28;20409;-78
2021/08/29 05:30:55;;;;;;;3.55;2.75;;;;;;;14.27;100.00;100712.69;5031223;28;20148;-82
2021/08/29 05:33:23;;;;;;;4.75;2.63;;;;;;;14.19;100.00;100712.44;5053417;28;20404;-80
2021/08/29 05:35:50;;;;;;;4.38;2.60;;;;;;;14.14;100.00;100711.91;5017932;28;20132;-80
2021/08/29 05:38:17;;;;;;;5.22;4.05;;;;;;;14.10;100.00;100713.09;5049597;28;20096;-80
2021/08/29 05:40:45;;;;;;;3.83;3.00;;;;;;;14.06;100.00;100719.56;5002860;28;20068;-80
2021/08/29 05:43:13;;;;;;;3.40;3.05;;;;;;;14.09;100.00;100719.31;5028695;28;20405;-80
2021/08/29 05:45:40;;;;;;;4.93;3.33;;;;;;;14.21;100.00;100721.09;5012488;28;20075;-80
2021/08/29 05:48:07;;;;;;;5.38;3.70;;;;;;;14.13;100.00;100716.34;5031211;28;20160;-81
2021/08/29 05:50:34;;;;;;;4.50;3.72;;;;;;;14.22;100.00;100724.59;5010758;28;20040;-79
2021/08/29 05:53:02;;;;;;;4.97;3.78;;;;;;;14.21;100.00;100718.44;5019330;28;20135;-82
2021/08/29 05:55:30;;;;;;;6.68;4.40;;;;;;;14.15;100.00;100721.53;5017742;28;20052;-80
2021/08/29 05:57:59;;;;;;;5.75;4.50;;;;;;;14.09;100.00;100721.97;5056945;28;20073;-79
2021/08/29 06:00:27;;;;;;;6.20;4.07;;;;;;;14.27;100.00;100723.28;5038786;28;20525;-79
2021/08/29 06:02:54;;;;;;;6.28;4.63;;;;;;;14.39;100.00;100726.84;5032293;28;20365;-79
2021/08/29 06:05:25;;;;;;;7.13;4.78;;;;;;;14.30;100.00;100725.72;5041310;28;20055;-80
2021/08/29 06:07:56;;;;;;;5.78;5.18;;;;;;;14.33;100.00;100720.22;5049867;28;20487;-81
2021/08/29 06:10:24;;;;;;;5.97;4.63;;;;;;;14.34;100.00;100726.34;5002843;28;20132;-79
2021/08/29 06:12:52;;;;;;;7.07;5.20;;;;;;;14.27;100.00;100733.03;5014654;28;20136;-78
2021/08/29 06:15:19;;;;;;;6.72;5.22;;;;;;;14.27;100.00;100722.44;5045937;28;20132;-79
2021/08/29 06:17:46;;;;;;;8.68;4.72;;;;;;;14.37;100.00;100726.13;5030552;28;20408;-79
2021/08/29 06:20:14;;;;;;;6.20;5.03;;;;;;;14.41;100.00;100722.31;5016509;28;20056;-79
2021/08/29 06:22:41;;;;;;;7.47;5.45;;;;;;;14.33;100.00;100722.84;5018911;28;20467;-78
2021/08/29 06:25:09;;;;;;;8.18;5.88;;;;;;;14.30;100.00;100715.13;5054636;28;20055;-80
2021/08/29 06:27:36;;;;;;;8.38;5.15;;;;;;;14.32;100.00;100710.56;5029409;28;20115;-80
2021/08/29 06:30:03;;;;;;;7.15;5.97;;;;;;;14.33;100.00;100711.41;5040969;28;20136;-78
2021/08/29 06:32:31;;;;;;;6.70;5.40;;;;;;;14.26;100.00;100707.50;5052074;28;20139;-78
2021/08/29 06:34:58;;;;;;;7.30;5.47;;;;;;;14.34;100.00;100703.34;5042526;28;20132;-80
2021/08/29 06:37:25;;;;;;;8.95;6.00;;;;;;;14.36;100.00;100708.53;5050335;28;20553;-78
2021/08/29 06:39:52;;;;;;;12.05;6.65;;;;;;;14.27;100.00;100694.16;5031804;28;20115;-78
2021/08/29 06:42:20;;;;;;;8.70;6.72;;;;;;;14.36;100.00;100698.81;5031300;28;20419;-79
2021/08/29 06:44:48;;;;;;;6.63;5.53;;;;;;;14.37;100.00;100695.19;5007325;28;20579;-79
2021/08/29 06:47:15;;;;;;;6.68;5.20;;;;;;;14.49;100.00;100692.59;5048074;28;20047;-80
2021/08/29 06:49:42;;;;;;;8.52;6.03;;;;;;;14.47;100.00;100690.06;5027540;28;20131;-78
2021/08/29 06:52:09;;;;;;;9.25;6.68;;;;;;;14.59;100.00;100689.19;5052485;28;20131;-79
2021/08/29 06:54:36;;;;;;;7.82;5.72;;;;;;;14.50;100.00;100695.16;5034703;28;20140;-78
2021/08/29 06:57:04;;;;;;;8.45;5.97;;;;;;;14.39;100.00;100692.41;5032163;28;20135;-78
2021/08/29 06:59:31;;;;;;;11.38;7.38;;;;;;;14.48;100.00;100704.13;4993473;28;20136;-80
2021/08/29 07:01:58;;;;;;;13.82;7.10;;;;;;;14.59;100.00;100697.13;5037417;28;20071;-80
2021/08/29 07:04:26;;;;;;;8.73;6.32;;;;;;;14.59;100.00;100701.56;5029162;28;20526;-79
2021/08/29 07:06:54;;;;;;;7.55;5.00;;;;;;;14.56;100.00;100693.84;5036490;28;20048;-79
2021/08/29 07:09:21;;;;;;;9.20;5.85;;;;;;;14.60;100.00;100700.63;5029093;28;20166;-78
2021/08/29 07:11:48;;;;;;;6.80;5.57;;;;;;;14.69;100.00;100706.06;5031171;28;20061;-79
2021/08/29 07:14:15;;;;;;;8.30;5.20;;;;;;;14.77;100.00;100701.97;5026104;28;20052;-78
2021/08/29 07:16:42;;;;;;;8.57;5.47;;;;;;;14.77;100.00;100710.81;5033518;28;20415;-78
2021/08/29 07:19:10;;;;;;;7.40;5.75;;;;;;;14.80;100.00;100710.56;5051422;28;20520;-82
2021/08/29 07:21:37;;;;;;;6.22;5.63;;;;;;;14.88;100.00;100708.19;5038944;28;20099;-80
2021/08/29 07:24:04;;;;;;;5.13;4.60;;;;;;;14.82;100.00;100706.00;5028289;28;20477;-80
2021/08/29 07:26:32;;;;;;;6.72;4.00;;;;;;;14.75;100.00;100710.06;5042133;28;20051;-80
2021/08/29 07:28:59;;;;;;;8.65;4.72;;;;;;;14.69;100.00;100699.94;5031066;28;20232;-80
2021/08/29 07:31:26;;;;;;;5.78;4.35;;;;;;;14.69;100.00;100705.22;5047241;28;20135;-79
2021/08/29 07:33:55;;;;;;;4.20;3.55;;;;;;;14.66;100.00;100711.59;5027516;28;20429;-80
2021/08/29 07:36:22;;;;;;;5.07;4.15;;;;;;;14.69;100.00;100706.06;5019069;28;20432;-80
2021/08/29 07:38:49;;;;;;;7.78;3.63;;;;;;;14.81;100.00;100703.44;5030980;28;20049;-79
2021/08/29 07:41:17;;;;;;;6.20;4.50;;;;;;;14.70;100.00;100706.91;5012104;28;20443;-79
2021/08/29 07:43:44;;;;;;;7.05;4.88;;;;;;;14.77;100.00;100709.94;5050999;28;20057;-81
2021/08/29 07:46:11;;;;;;;7.40;5.88;;;;;;;14.81;100.00;100706.94;5056498;28;20060;-80
2021/08/29 07:48:40;;;;;;;5.72;4.90;;;;;;;14.78;100.00;100714.31;5014963;28;20052;-80
2021/08/29 07:51:07;;;;;;;7.60;3.90;;;;;;;14.80;100.00;100715.00;5013161;28;20053;-80
2021/08/29 07:53:34;;;;;;;4.50;4.10;;;;;;;14.75;100.00;100709.22;5051087;28;20083;-78
2021/08/29 07:56:01;;;;;;;6.40;4.15;;;;;;;14.77;100.00;100704.63;5048100;28;20509;-80
2021/08/29 07:58:29;;;;;;;5.85;4.40;;;;;;;14.86;100.00;100707.47;5040567;28;20545;-79
2021/08/29 08:00:56;;;;;;;16.35;6.13;;;;;;;14.97;100.00;100709.28;5028352;28;20049;-79
2021/08/29 08:03:23;;;;;;;8.35;5.07;;;;;;;15.23;100.00;100704.66;5033314;28;20125;-80
2021/08/29 08:05:51;;;;;;;8.40;5.15;;;;;;;15.32;100.00;100705.75;5012474;28;20531;-78
2021/08/29 08:08:19;;;;;;;9.20;6.00;;;;;;;15.28;100.00;100707.78;5028133;28;20440;-79
2021/08/29 08:10:46;;;;;;;9.02;5.35;;;;;;;15.30;100.00;100711.16;5032676;28;20500;-78
2021/08/29 08:13:14;;;;;;;10.27;5.28;;;;;;;15.46;100.00;100716.13;5014217;28;20044;-81
2021/08/29 08:15:41;;;;;;;8.02;5.80;;;;;;;15.58;100.00;100709.88;5011269;28;20080;-79
2021/08/29 08:18:08;;;;;;;7.40;5.80;;;;;;;15.80;100.00;100719.66;5032459;28;20041;-81
2021/08/29 08:20:35;;;;;;;6.50;5.05;;;;;;;15.98;100.00;100727.13;5045756;28;20155;-79
2021/08/29 08:23:02;;;;;;;5.20;4.07;;;;;;;16.23;100.00;100731.31;5034160;28;20367;-80
2021/08/29 08:25:30;;;;;;;5.90;5.30;;;;;;;16.04;100.00;100724.84;5018054;28;20045;-79
2021/08/29 08:27:57;;;;;;;5.32;4.07;;;;;;;16.35;100.00;100738.28;5022634;28;20037;-79
2021/08/29 08:30:25;;;;;;;6.15;4.80;;;;;;;16.53;100.00;100735.94;5019879;28;20052;-79
2021/08/29 08:32:52;;;;;;;5.60;4.22;;;;;;;16.37;100.00;100737.19;5036311;28;20136;-79
2021/08/29 08:35:19;;;;;;;4.32;3.92;;;;;;;16.54;100.00;100740.28;5042552;28;20136;-79
2021/08/29 08:37:46;;;;;;;5.55;3.50;;;;;;;16.72;100.00;100730.81;5051705;28;20044;-80
2021/08/29 08:40:14;;;;;;;4.78;3.85;;;;;;;16.70;100.00;100730.06;5031517;28;20103;-79
2021/08/29 08:42:41;;;;;;;7.35;4.22;;;;;;;16.99;100.00;100730.34;5038436;28;20064;-79
2021/08/29 08:45:08;;;;;;;7.22;3.88;;;;;;;17.32;100.00;100726.63;5044959;28;20163;-79
2021/08/29 08:47:37;;;;;;;6.28;3.30;;;;;;;17.29;100.00;100723.38;5016491;28;20060;-82
2021/08/29 08:50:05;;;;;;;5.03;3.35;;;;;;;17.51;100.00;100727.69;5022773;28;20060;-80
2021/08/29 08:52:32;;;;;;;5.15;3.30;;;;;;;17.63;100.00;100734.63;5020307;28;20041;-80
2021/08/29 08:55:00;;;;;;;5.50;3.42;;;;;;;17.73;100.00;100730.19;5030682;28;20534;-80
2021/08/29 08:57:28;;;;;;;4.25;3.47;;;;;;;17.95;100.00;100731.84;5017324;28;20073;-80
2021/08/29 08:59:55;;;;;;;3.95;2.83;;;;;;;17.18;100.00;100732.28;5028425;28;20136;-81
2021/08/29 09:02:24;;;;;;;3.47;2.70;;;;;;;17.90;100.00;100729.56;5024083;28;20424;-80
2021/08/29 09:04:52;;;;;;;2.20;1.77;;;;;;;18.18;96.67;100730.63;5034240;28;20036;-82
2021/08/29 09:07:19;;;;;;;3.60;2.58;;;;;;;18.30;95.39;100731.38;5027247;28;20080;-80
2021/08/29 09:09:46;;;;;;;3.13;2.58;;;;;;;18.42;95.85;100732.09;5030715;28;20333;-80
2021/08/29 09:12:14;;;;;;;3.25;2.30;;;;;;;19.00;91.19;100726.78;5036466;28;20111;-81
2021/08/29 09:14:44;;;;;;;2.25;1.45;;;;;;;19.01;88.77;100724.97;5016299;28;20130;-81
2021/08/29 09:17:27;;;;;;;1.88;1.65;;;;;;;19.58;88.43;100726.63;5025935;28;20080;-80
2021/08/29 09:20:13;;;;;;;2.95;1.55;;;;;;;19.90;84.80;100720.06;5029060;28;20139;-81
2021/08/29 09:22:41;;;;;;;2.30;1.80;;;;;;;19.84;86.18;100726.00;5048091;28;20053;-80
2021/08/29 09:25:20;;;;;;;1.63;1.52;;;;;;;19.65;86.51;100726.94;5038883;28;20052;-80
2021/08/29 09:27:50;;;;;;;3.63;2.22;;;;;;;19.98;85.50;100717.50;5031973;28;20061;-81
2021/08/29 09:30:19;;;;;;;2.20;1.88;;;;;;;20.32;83.03;100715.06;5028763;28;20110;-80
2021/08/29 09:32:56;;;;;;;1.80;1.42;;;;;;;20.36;80.83;100708.41;5016927;28;20131;-81
2021/08/29 09:35:30;;;;;;;1.60;1.17;;;;;;;19.72;82.40;100707.53;5007721;28;20076;-80
2021/08/29 09:37:58;;;;;;;1.73;1.13;;;;;;;19.12;84.75;100716.81;5037428;28;20080;-78
2021/08/29 09:40:28;;;;;;;1.88;1.30;;;;;;;18.84;86.07;100722.03;5033403;28;20493;-81
2021/08/29 09:42:57;;;;;;;1.90;1.67;;;;;;;18.20;93.09;100718.03;5031697;28;20076;-79
2021/08/29 09:45:40;;;;;;;2.05;1.27;;;;;;;18.46;90.97;100723.69;5031846;28;20044;-79
2021/08/29 09:48:10;;;;;;;1.90;1.55;;;;;;;18.33;94.42;100719.59;5033987;28;20121;-80
2021/08/29 09:50:39;;;;;;;2.20;1.65;;;;;;;18.62;91.50;100725.78;5015100;28;20056;-79
2021/08/29 09:53:12;;;;;;;1.70;1.50;;;;;;;18.58;89.67;100724.38;5014733;28;20048;-81
2021/08/29 09:55:41;;;;;;;4.55;1.77;;;;;;;18.67;91.70;100720.88;5006868;28;20041;-80
2021/08/29 09:58:22;;;;;;;2.60;1.70;;;;;;;18.58;91.60;100702.22;5030347;28;20128;-81
2021/08/29 10:01:11;;;;;;;2.28;1.23;;;;;;;19.20;89.03;100707.09;5052029;28;20048;-79
2021/08/29 10:03:45;;;;;;;2.33;1.33;;;;;;;19.86;86.67;100700.84;5013178;28;20653;-81
2021/08/29 10:06:22;;;;;;;5.50;1.15;;;;;;;20.49;82.08;100694.72;5033713;28;20096;-79
2021/08/29 10:08:54;;;;;;;1.45;1.15;;;;;;;19.89;81.13;100697.03;5031706;28;20132;-82
2021/08/29 10:11:22;;;;;;;1.40;0.95;;;;;;;19.44;84.02;100700.41;5049805;28;20041;-81
2021/08/29 10:13:50;;;;;;;2.33;1.10;;;;;;;19.77;82.24;100692.84;5028187;28;20064;-80
2021/08/29 10:16:18;;;;;;;2.75;1.02;;;;;;;20.07;80.25;100694.38;5013505;28;20563;-79
2021/08/29 10:18:47;;;;;;;1.30;1.10;;;;;;;20.30;78.44;100692.97;5016346;28;20467;-79
2021/08/29 10:21:16;;;;;;;1.70;0.93;;;;;;;20.37;80.11;100682.50;5048876;28;20123;-80
2021/08/29 10:23:46;;;;;;;1.35;1.10;;;;;;;19.63;82.96;100686.16;5025802;28;20037;-82
2021/08/29 10:26:16;;;;;;;1.35;1.10;;;;;;;19.43;80.71;100682.72;5046086;28;20292;-80
2021/08/29 10:28:47;;;;;;;1.42;1.00;;;;;;;18.90;84.79;100678.78;5029868;28;20053;-80
2021/08/29 10:31:17;;;;;;;1.30;0.80;;;;;;;19.53;82.21;100677.34;5046467;28;20056;-82
2021/08/29 10:33:48;;;;;;;1.67;1.20;;;;;;;19.55;82.88;100672.72;4991343;28;20065;-81
2021/08/29 10:36:17;;;;;;;2.22;1.30;;;;;;;19.64;80.48;100678.03;5014644;28;20052;-81
2021/08/29 10:38:46;;;;;;;1.60;1.10;;;;;;;20.00;80.68;100674.63;5032421;28;20052;-80
2021/08/29 10:41:17;;;;;;;1.73;1.17;;;;;;;20.12;80.39;100674.22;5016718;28;20144;-78
2021/08/29 10:43:45;;;;;;;1.10;0.90;;;;;;;20.36;79.04;100670.97;5014671;28;20051;-80
2021/08/29 10:46:14;;;;;;;0.75;0.50;;;;;;;20.52;76.13;100672.97;5048761;28;20127;-79
2021/08/29 10:48:47;;;;;;;0.52;0.52;;;;;;;20.91;73.85;100662.78;5017702;28;20083;-79
2021/08/29 10:51:18;;;;;;;1.42;0.77;;;;;;;21.05;72.96;100661.34;5006920;28;20239;-80
2021/08/29 10:53:50;;;;;;;0.80;0.60;;;;;;;21.54;72.89;100658.16;5033213;28;20124;-82
2021/08/29 10:56:18;;;;;;;0.82;0.60;;;;;;;20.98;72.50;100652.25;5031431;28;20049;-80
2021/08/29 10:58:47;;;;;;;0.80;0.55;;;;;;;21.42;71.13;100660.25;5027768;28;20251;-80
2021/08/29 11:01:34;;;;;;;1.10;0.73;;;;;;;20.85;73.11;100662.53;5033237;28;20079;-80
2021/08/29 11:04:17;;;;;;;1.55;1.25;;;;;;;21.20;69.12;100653.56;5015266;28;20084;-82
2021/08/29 11:06:46;;;;;;;1.30;0.75;;;;;;;21.15;69.99;100656.72;5035369;28;20049;-80
2021/08/29 11:09:31;;;;;;;2.05;0.80;;;;;;;21.02;69.92;100656.31;5027276;28;20075;-80
2021/08/29 11:11:59;;;;;;;;;;;;;;;20.82;72.82;100666.38;5020795;28;20045;-80
2021/08/29 11:14:39;;;;;;;0.70;0.60;;;;;;;20.45;73.80;100661.19;5027878;28;19925;-80
2021/08/29 11:17:09;;;;;;;1.25;0.68;;;;;;;20.01;75.73;100658.41;5052318;28;20412;-80
2021/08/29 11:19:38;;;;;;;0.88;0.60;;;;;;;20.47;74.74;100664.56;5033895;28;20047;-82
2021/08/29 11:22:08;;;;;;;1.42;1.00;;;;;;;20.80;71.98;100663.00;5036202;28;20057;-79
2021/08/29 11:25:11;;;;;;;1.05;0.52;;;;;;;21.13;68.67;100663.25;5015489;28;20041;-79